Fulton, New York
Current Conditions -  °F | °C
As of 4:54 AM on Saturday 25 Oct 2014 (Local Time) from KFZY Reporting Station
Haze Haze  
Wind Chill: 42°   Ceiling: 6500
Heat Index: 44°   Visibility: 5mi
Dew Point: 41°   Wind: 5mph
Humidity: 89%   Direction: 220°SW
Pressure: 29.85"   Gusts: NA
Location:  43.32°N, 76.41°W
Report Text: KFZY 250854Z AUTO 22004KT 5SM BR BKN065 07/05 A2985 RMK AO2 SLP111 T00670050 58007
Loading
Personal Weather Stations






























Interactive Weather Map
Tropical Storm Tracking
New forecast layout! Learn more

10-Day Weather Forecast

Advertisements
Track Severe Weather on mobile